sensor_id;sensor_type;location;lat;lon;timestamp;pressure;altitude;pressure_sealevel;temperature
34901;BMP280;21112;51.976;5.660;2023-08-30T00:01:43;99919.75;;;13.54
34901;BMP280;21112;51.976;5.660;2023-08-30T00:04:09;99920.69;;;13.52
34901;BMP280;21112;51.976;5.660;2023-08-30T00:06:36;99919.13;;;13.49
34901;BMP280;21112;51.976;5.660;2023-08-30T00:09:03;99917.72;;;13.44
34901;BMP280;21112;51.976;5.660;2023-08-30T00:11:31;99912.44;;;13.31
34901;BMP280;21112;51.976;5.660;2023-08-30T00:14:03;99906.72;;;13.28
34901;BMP280;21112;51.976;5.660;2023-08-30T00:16:31;99906.03;;;13.24
34901;BMP280;21112;51.976;5.660;2023-08-30T00:18:58;99905.56;;;13.16
34901;BMP280;21112;51.976;5.660;2023-08-30T00:21:25;99905.06;;;13.08
34901;BMP280;21112;51.976;5.660;2023-08-30T00:23:53;99902.03;;;13.02
34901;BMP280;21112;51.976;5.660;2023-08-30T00:26:20;99901.41;;;12.97
34901;BMP280;21112;51.976;5.660;2023-08-30T00:28:48;99902.31;;;12.94
34901;BMP280;21112;51.976;5.660;2023-08-30T00:31:15;99902.59;;;12.88
34901;BMP280;21112;51.976;5.660;2023-08-30T00:33:41;99898.59;;;12.84
34901;BMP280;21112;51.976;5.660;2023-08-30T00:36:08;99888.78;;;12.78
34901;BMP280;21112;51.976;5.660;2023-08-30T00:38:34;99898.22;;;12.73
34901;BMP280;21112;51.976;5.660;2023-08-30T00:41:01;99894.13;;;12.71
34901;BMP280;21112;51.976;5.660;2023-08-30T00:43:28;99899.44;;;12.65
34901;BMP280;21112;51.976;5.660;2023-08-30T00:45:56;99888.69;;;12.61
34901;BMP280;21112;51.976;5.660;2023-08-30T00:48:23;99887.19;;;12.57
34901;BMP280;21112;51.976;5.660;2023-08-30T00:50:50;99888.97;;;12.55
34901;BMP280;21112;51.976;5.660;2023-08-30T00:53:16;99892.91;;;12.61
34901;BMP280;21112;51.976;5.660;2023-08-30T00:55:44;99888.69;;;12.61
34901;BMP280;21112;51.976;5.660;2023-08-30T00:58:10;99893.72;;;12.61
34901;BMP280;21112;51.976;5.660;2023-08-30T01:00:38;99888.56;;;12.64
34901;BMP280;21112;51.976;5.660;2023-08-30T01:03:07;99894.41;;;12.65
34901;BMP280;21112;51.976;5.660;2023-08-30T01:05:34;99891.81;;;12.66
34901;BMP280;21112;51.976;5.660;2023-08-30T01:08:01;99886.84;;;12.65
34901;BMP280;21112;51.976;5.660;2023-08-30T01:10:42;99896.19;;;12.63
34901;BMP280;21112;51.976;5.660;2023-08-30T01:13:15;99887.06;;;12.60
34901;BMP280;21112;51.976;5.660;2023-08-30T01:15:46;99893.94;;;12.57
34901;BMP280;21112;51.976;5.660;2023-08-30T01:18:17;99884.78;;;12.54
34901;BMP280;21112;51.976;5.660;2023-08-30T01:20:45;99884.19;;;12.49
34901;BMP280;21112;51.976;5.660;2023-08-30T01:23:20;99889.50;;;12.43
34901;BMP280;21112;51.976;5.660;2023-08-30T01:25:55;99889.22;;;12.49
34901;BMP280;21112;51.976;5.660;2023-08-30T01:28:27;99883.22;;;12.52
34901;BMP280;21112;51.976;5.660;2023-08-30T01:30:56;99881.06;;;12.63
34901;BMP280;21112;51.976;5.660;2023-08-30T01:33:24;99878.13;;;12.72
34901;BMP280;21112;51.976;5.660;2023-08-30T01:35:54;99878.53;;;12.81
34901;BMP280;21112;51.976;5.660;2023-08-30T01:38:21;99876.44;;;12.91
34901;BMP280;21112;51.976;5.660;2023-08-30T01:40:48;99876.19;;;12.97
34901;BMP280;21112;51.976;5.660;2023-08-30T01:43:17;99876.06;;;13.00
34901;BMP280;21112;51.976;5.660;2023-08-30T01:45:46;99873.41;;;13.03
34901;BMP280;21112;51.976;5.660;2023-08-30T01:48:15;99872.44;;;13.05
34901;BMP280;21112;51.976;5.660;2023-08-30T01:50:44;99873.28;;;13.06
34901;BMP280;21112;51.976;5.660;2023-08-30T01:53:12;99874.97;;;13.05
34901;BMP280;21112;51.976;5.660;2023-08-30T01:55:39;99871.50;;;13.08
34901;BMP280;21112;51.976;5.660;2023-08-30T01:58:07;99865.22;;;13.16
34901;BMP280;21112;51.976;5.660;2023-08-30T02:00:34;99867.44;;;13.22
34901;BMP280;21112;51.976;5.660;2023-08-30T02:03:08;99867.31;;;13.25
34901;BMP280;21112;51.976;5.660;2023-08-30T02:05:37;99858.91;;;13.25
34901;BMP280;21112;51.976;5.660;2023-08-30T02:08:12;99850.69;;;13.38
34901;BMP280;21112;51.976;5.660;2023-08-30T02:10:41;99854.69;;;13.42
34901;BMP280;21112;51.976;5.660;2023-08-30T02:13:10;99856.25;;;13.45
34901;BMP280;21112;51.976;5.660;2023-08-30T02:15:39;99859.63;;;13.45
34901;BMP280;21112;51.976;5.660;2023-08-30T02:18:09;99851.16;;;13.46
34901;BMP280;21112;51.976;5.660;2023-08-30T02:20:36;99845.94;;;13.49
34901;BMP280;21112;51.976;5.660;2023-08-30T02:23:03;99845.22;;;13.47
34901;BMP280;21112;51.976;5.660;2023-08-30T02:25:30;99841.00;;;13.48
34901;BMP280;21112;51.976;5.660;2023-08-30T02:27:56;99843.41;;;13.49
34901;BMP280;21112;51.976;5.660;2023-08-30T02:30:23;99842.75;;;13.46
34901;BMP280;21112;51.976;5.660;2023-08-30T02:32:50;99840.38;;;13.43
34901;BMP280;21112;51.976;5.660;2023-08-30T02:35:18;99840.31;;;13.44
34901;BMP280;21112;51.976;5.660;2023-08-30T02:37:44;99842.69;;;13.47
34901;BMP280;21112;51.976;5.660;2023-08-30T02:40:11;99833.50;;;13.46
34901;BMP280;21112;51.976;5.660;2023-08-30T02:42:38;99825.91;;;13.46
34901;BMP280;21112;51.976;5.660;2023-08-30T02:45:06;99835.28;;;13.44
34901;BMP280;21112;51.976;5.660;2023-08-30T02:47:32;99825.19;;;13.44
34901;BMP280;21112;51.976;5.660;2023-08-30T02:49:59;99832.59;;;13.47
34901;BMP280;21112;51.976;5.660;2023-08-30T02:52:27;99833.56;;;13.45
34901;BMP280;21112;51.976;5.660;2023-08-30T02:54:54;99822.66;;;13.44
34901;BMP280;21112;51.976;5.660;2023-08-30T02:57:20;99825.19;;;13.44
34901;BMP280;21112;51.976;5.660;2023-08-30T02:59:49;99820.38;;;13.40
34901;BMP280;21112;51.976;5.660;2023-08-30T03:02:16;99821.44;;;13.34
34901;BMP280;21112;51.976;5.660;2023-08-30T03:04:43;99812.84;;;13.38
34901;BMP280;21112;51.976;5.660;2023-08-30T03:07:10;99809.28;;;13.42
34901;BMP280;21112;51.976;5.660;2023-08-30T03:09:38;99817.75;;;13.41
34901;BMP280;21112;51.976;5.660;2023-08-30T03:12:06;99814.47;;;13.39
34901;BMP280;21112;51.976;5.660;2023-08-30T03:14:33;99816.84;;;13.42
34901;BMP280;21112;51.976;5.660;2023-08-30T03:17:00;99805.06;;;13.43
34901;BMP280;21112;51.976;5.660;2023-08-30T03:19:26;99803.50;;;13.40
34901;BMP280;21112;51.976;5.660;2023-08-30T03:21:53;99805.50;;;13.34
34901;BMP280;21112;51.976;5.660;2023-08-30T03:24:20;99801.44;;;13.31
34901;BMP280;21112;51.976;5.660;2023-08-30T03:26:48;99797.28;;;13.30
34901;BMP280;21112;51.976;5.660;2023-08-30T03:29:14;99793.97;;;13.28
34901;BMP280;21112;51.976;5.660;2023-08-30T03:31:41;99791.34;;;13.31
34901;BMP280;21112;51.976;5.660;2023-08-30T03:34:08;99787.38;;;13.26
34901;BMP280;21112;51.976;5.660;2023-08-30T03:36:38;99785.63;;;13.28
34901;BMP280;21112;51.976;5.660;2023-08-30T03:39:04;99778.19;;;13.25
34901;BMP280;21112;51.976;5.660;2023-08-30T03:41:31;99773.28;;;13.22
34901;BMP280;21112;51.976;5.660;2023-08-30T03:44:00;99774.53;;;13.13
34901;BMP280;21112;51.976;5.660;2023-08-30T03:46:26;99772.25;;;13.09
34901;BMP280;21112;51.976;5.660;2023-08-30T03:48:53;99757.75;;;12.95
34901;BMP280;21112;51.976;5.660;2023-08-30T03:51:21;99750.59;;;12.86
34901;BMP280;21112;51.976;5.660;2023-08-30T03:53:53;99743.59;;;12.74
34901;BMP280;21112;51.976;5.660;2023-08-30T03:56:23;99737.19;;;12.67
34901;BMP280;21112;51.976;5.660;2023-08-30T03:58:50;99737.63;;;12.58
34901;BMP280;21112;51.976;5.660;2023-08-30T04:01:18;99738.34;;;12.43
34901;BMP280;21112;51.976;5.660;2023-08-30T04:03:45;99733.03;;;12.49
34901;BMP280;21112;51.976;5.660;2023-08-30T04:06:11;99740.22;;;12.38
34901;BMP280;21112;51.976;5.660;2023-08-30T04:08:38;99739.75;;;12.30
34901;BMP280;21112;51.976;5.660;2023-08-30T04:11:05;99729.28;;;12.21
34901;BMP280;21112;51.976;5.660;2023-08-30T04:13:32;99727.91;;;12.14
34901;BMP280;21112;51.976;5.660;2023-08-30T04:15:59;99727.25;;;12.10
34901;BMP280;21112;51.976;5.660;2023-08-30T04:18:28;99724.16;;;12.04
34901;BMP280;21112;51.976;5.660;2023-08-30T04:20:54;99723.69;;;11.96
34901;BMP280;21112;51.976;5.660;2023-08-30T04:23:23;99728.22;;;11.88
34901;BMP280;21112;51.976;5.660;2023-08-30T04:25:50;99733.53;;;11.82
34901;BMP280;21112;51.976;5.660;2023-08-30T04:28:17;99717.88;;;11.75
34901;BMP280;21112;51.976;5.660;2023-08-30T04:30:44;99716.38;;;11.71
34901;BMP280;21112;51.976;5.660;2023-08-30T04:33:11;99729.09;;;11.68
34901;BMP280;21112;51.976;5.660;2023-08-30T04:35:39;99724.19;;;11.65
34901;BMP280;21112;51.976;5.660;2023-08-30T04:38:06;99721.81;;;11.62
34901;BMP280;21112;51.976;5.660;2023-08-30T04:40:33;99725.06;;;11.64
34901;BMP280;21112;51.976;5.660;2023-08-30T04:42:59;99729.41;;;11.61
34901;BMP280;21112;51.976;5.660;2023-08-30T04:45:27;99735.38;;;11.58
34901;BMP280;21112;51.976;5.660;2023-08-30T04:47:54;99727.72;;;11.61
34901;BMP280;21112;51.976;5.660;2023-08-30T04:50:21;99732.09;;;11.56
34901;BMP280;21112;51.976;5.660;2023-08-30T04:52:49;99721.13;;;11.59
34901;BMP280;21112;51.976;5.660;2023-08-30T04:55:16;99728.22;;;11.69
34901;BMP280;21112;51.976;5.660;2023-08-30T04:57:49;99727.19;;;11.73
34901;BMP280;21112;51.976;5.660;2023-08-30T05:00:18;99716.94;;;11.78
34901;BMP280;21112;51.976;5.660;2023-08-30T05:02:45;99711.03;;;11.79
34901;BMP280;21112;51.976;5.660;2023-08-30T05:05:12;99702.53;;;11.81
34901;BMP280;21112;51.976;5.660;2023-08-30T05:07:40;99705.03;;;11.81
34901;BMP280;21112;51.976;5.660;2023-08-30T05:10:12;99694.19;;;11.79
34901;BMP280;21112;51.976;5.660;2023-08-30T05:12:39;99697.34;;;11.84
34901;BMP280;21112;51.976;5.660;2023-08-30T05:15:08;99696.47;;;11.85
34901;BMP280;21112;51.976;5.660;2023-08-30T05:17:35;99700.41;;;11.91
34901;BMP280;21112;51.976;5.660;2023-08-30T05:20:02;99691.09;;;11.93
34901;BMP280;21112;51.976;5.660;2023-08-30T05:22:34;99700.22;;;11.95
34901;BMP280;21112;51.976;5.660;2023-08-30T05:25:01;99685.84;;;11.97
34901;BMP280;21112;51.976;5.660;2023-08-30T05:27:30;99685.91;;;11.96
34901;BMP280;21112;51.976;5.660;2023-08-30T05:29:56;99695.50;;;12.06
34901;BMP280;21112;51.976;5.660;2023-08-30T05:32:23;99691.94;;;12.12
34901;BMP280;21112;51.976;5.660;2023-08-30T05:34:49;99687.25;;;12.21
34901;BMP280;21112;51.976;5.660;2023-08-30T05:37:16;99679.25;;;12.32
34901;BMP280;21112;51.976;5.660;2023-08-30T05:39:43;99683.72;;;12.44
34901;BMP280;21112;51.976;5.660;2023-08-30T05:42:10;99676.19;;;12.61
34901;BMP280;21112;51.976;5.660;2023-08-30T05:44:40;99675.63;;;12.73
34901;BMP280;21112;51.976;5.660;2023-08-30T05:47:07;99664.88;;;12.86
34901;BMP280;21112;51.976;5.660;2023-08-30T05:49:40;99659.94;;;13.02
34901;BMP280;21112;51.976;5.660;2023-08-30T05:52:07;99661.03;;;13.13
34901;BMP280;21112;51.976;5.660;2023-08-30T05:54:36;99655.41;;;13.25
34901;BMP280;21112;51.976;5.660;2023-08-30T05:57:03;99660.75;;;13.36
34901;BMP280;21112;51.976;5.660;2023-08-30T05:59:30;99666.94;;;13.46
34901;BMP280;21112;51.976;5.660;2023-08-30T06:01:58;99668.91;;;13.57
34901;BMP280;21112;51.976;5.660;2023-08-30T06:04:25;99662.66;;;13.64
34901;BMP280;21112;51.976;5.660;2023-08-30T06:06:52;99665.59;;;13.72
34901;BMP280;21112;51.976;5.660;2023-08-30T06:09:19;99660.63;;;13.55
34901;BMP280;21112;51.976;5.660;2023-08-30T06:11:45;99667.66;;;13.65
34901;BMP280;21112;51.976;5.660;2023-08-30T06:14:12;99669.34;;;13.65
34901;BMP280;21112;51.976;5.660;2023-08-30T06:16:39;99676.69;;;13.69
34901;BMP280;21112;51.976;5.660;2023-08-30T06:19:11;99671.78;;;13.66
34901;BMP280;21112;51.976;5.660;2023-08-30T06:21:37;99675.88;;;13.69
34901;BMP280;21112;51.976;5.660;2023-08-30T06:24:05;99672.38;;;13.71
34901;BMP280;21112;51.976;5.660;2023-08-30T06:26:33;99663.91;;;13.72
34901;BMP280;21112;51.976;5.660;2023-08-30T06:29:00;99667.25;;;13.88
34901;BMP280;21112;51.976;5.660;2023-08-30T06:31:26;99665.41;;;13.92
34901;BMP280;21112;51.976;5.660;2023-08-30T06:33:54;99667.66;;;13.96
34901;BMP280;21112;51.976;5.660;2023-08-30T06:36:22;99664.41;;;13.79
34901;BMP280;21112;51.976;5.660;2023-08-30T06:38:49;99664.59;;;13.91
34901;BMP280;21112;51.976;5.660;2023-08-30T06:41:16;99660.09;;;13.96
34901;BMP280;21112;51.976;5.660;2023-08-30T06:43:42;99659.13;;;13.99
34901;BMP280;21112;51.976;5.660;2023-08-30T06:46:09;99656.69;;;13.97
34901;BMP280;21112;51.976;5.660;2023-08-30T06:48:36;99654.59;;;14.05
34901;BMP280;21112;51.976;5.660;2023-08-30T06:51:02;99663.38;;;14.14
34901;BMP280;21112;51.976;5.660;2023-08-30T06:53:31;99663.47;;;14.12
34901;BMP280;21112;51.976;5.660;2023-08-30T06:55:58;99658.66;;;14.08
34901;BMP280;21112;51.976;5.660;2023-08-30T06:58:25;99663.06;;;14.04
34901;BMP280;21112;51.976;5.660;2023-08-30T07:00:52;99665.41;;;13.92
34901;BMP280;21112;51.976;5.660;2023-08-30T07:03:19;99661.75;;;13.97
34901;BMP280;21112;51.976;5.660;2023-08-30T07:05:46;99666.25;;;13.75
34901;BMP280;21112;51.976;5.660;2023-08-30T07:08:13;99661.81;;;13.80
34901;BMP280;21112;51.976;5.660;2023-08-30T07:10:42;99659.53;;;13.76
34901;BMP280;21112;51.976;5.660;2023-08-30T07:13:10;99663.84;;;13.74
34901;BMP280;21112;51.976;5.660;2023-08-30T07:15:38;99662.00;;;13.60
34901;BMP280;21112;51.976;5.660;2023-08-30T07:18:08;99655.72;;;13.52
34901;BMP280;21112;51.976;5.660;2023-08-30T07:20:35;99646.69;;;13.48
34901;BMP280;21112;51.976;5.660;2023-08-30T07:23:02;99641.88;;;13.43
34901;BMP280;21112;51.976;5.660;2023-08-30T07:25:31;99642.41;;;13.33
34901;BMP280;21112;51.976;5.660;2023-08-30T07:28:00;99632.53;;;13.28
34901;BMP280;21112;51.976;5.660;2023-08-30T07:30:27;99626.75;;;13.26
34901;BMP280;21112;51.976;5.660;2023-08-30T07:32:54;99633.00;;;13.19
34901;BMP280;21112;51.976;5.660;2023-08-30T07:35:20;99631.88;;;13.25
34901;BMP280;21112;51.976;5.660;2023-08-30T07:37:53;99634.09;;;13.31
34901;BMP280;21112;51.976;5.660;2023-08-30T07:40:20;99635.56;;;13.35
34901;BMP280;21112;51.976;5.660;2023-08-30T07:42:49;99640.56;;;13.36
34901;BMP280;21112;51.976;5.660;2023-08-30T07:45:17;99638.34;;;13.30
34901;BMP280;21112;51.976;5.660;2023-08-30T07:47:44;99639.13;;;13.31
34901;BMP280;21112;51.976;5.660;2023-08-30T07:50:11;99627.47;;;13.28
34901;BMP280;21112;51.976;5.660;2023-08-30T07:52:40;99629.56;;;13.37
34901;BMP280;21112;51.976;5.660;2023-08-30T07:55:09;99621.41;;;13.32
34901;BMP280;21112;51.976;5.660;2023-08-30T07:57:36;99611.56;;;13.28
34901;BMP280;21112;51.976;5.660;2023-08-30T08:00:03;99611.44;;;13.29
34901;BMP280;21112;51.976;5.660;2023-08-30T08:02:34;99606.56;;;13.26
34901;BMP280;21112;51.976;5.660;2023-08-30T08:05:01;99606.91;;;13.03
34901;BMP280;21112;51.976;5.660;2023-08-30T08:07:28;99606.44;;;13.12
34901;BMP280;21112;51.976;5.660;2023-08-30T08:09:56;99599.84;;;13.27
34901;BMP280;21112;51.976;5.660;2023-08-30T08:12:23;99590.06;;;13.21
34901;BMP280;21112;51.976;5.660;2023-08-30T08:14:49;99597.66;;;13.36
34901;BMP280;21112;51.976;5.660;2023-08-30T08:17:16;99594.25;;;13.53
34901;BMP280;21112;51.976;5.660;2023-08-30T08:19:44;99588.66;;;13.63
34901;BMP280;21112;51.976;5.660;2023-08-30T08:22:11;99585.59;;;13.74
34901;BMP280;21112;51.976;5.660;2023-08-30T08:24:38;99583.03;;;13.89
34901;BMP280;21112;51.976;5.660;2023-08-30T08:27:05;99588.97;;;13.73
34901;BMP280;21112;51.976;5.660;2023-08-30T08:29:32;99585.47;;;13.75
34901;BMP280;21112;51.976;5.660;2023-08-30T08:31:58;99589.22;;;13.84
34901;BMP280;21112;51.976;5.660;2023-08-30T08:34:25;99572.53;;;13.97
34901;BMP280;21112;51.976;5.660;2023-08-30T08:36:53;99573.09;;;14.02
34901;BMP280;21112;51.976;5.660;2023-08-30T08:39:20;99574.81;;;14.01
34901;BMP280;21112;51.976;5.660;2023-08-30T08:41:47;99574.09;;;13.99
34901;BMP280;21112;51.976;5.660;2023-08-30T08:44:13;99573.09;;;13.86
34901;BMP280;21112;51.976;5.660;2023-08-30T08:46:41;99570.25;;;13.92
34901;BMP280;21112;51.976;5.660;2023-08-30T08:49:09;99564.56;;;13.89
34901;BMP280;21112;51.976;5.660;2023-08-30T08:51:37;99566.75;;;13.79
34901;BMP280;21112;51.976;5.660;2023-08-30T08:54:06;99564.22;;;13.79
34901;BMP280;21112;51.976;5.660;2023-08-30T08:56:38;99564.22;;;13.79
34901;BMP280;21112;51.976;5.660;2023-08-30T08:59:05;99564.16;;;13.81
34901;BMP280;21112;51.976;5.660;2023-08-30T09:01:33;99566.19;;;13.74
34901;BMP280;21112;51.976;5.660;2023-08-30T09:04:04;99564.38;;;13.92
34901;BMP280;21112;51.976;5.660;2023-08-30T09:06:34;99565.94;;;13.94
34901;BMP280;21112;51.976;5.660;2023-08-30T09:09:01;99567.00;;;13.90
34901;BMP280;21112;51.976;5.660;2023-08-30T09:11:31;99551.44;;;13.82
34901;BMP280;21112;51.976;5.660;2023-08-30T09:13:58;99560.81;;;13.96
34901;BMP280;21112;51.976;5.660;2023-08-30T09:16:25;99555.00;;;14.09
34901;BMP280;21112;51.976;5.660;2023-08-30T09:18:58;99544.09;;;14.09
34901;BMP280;21112;51.976;5.660;2023-08-30T09:21:26;99546.06;;;14.19
34901;BMP280;21112;51.976;5.660;2023-08-30T09:23:59;99543.34;;;14.22
34901;BMP280;21112;51.976;5.660;2023-08-30T09:26:26;99554.34;;;14.21
34901;BMP280;21112;51.976;5.660;2023-08-30T09:29:01;99552.66;;;14.22
34901;BMP280;21112;51.976;5.660;2023-08-30T09:31:32;99548.72;;;14.32
34901;BMP280;21112;51.976;5.660;2023-08-30T09:33:59;99545.78;;;14.39
34901;BMP280;21112;51.976;5.660;2023-08-30T09:36:32;99537.88;;;14.30
34901;BMP280;21112;51.976;5.660;2023-08-30T09:38:59;99541.66;;;14.52
34901;BMP280;21112;51.976;5.660;2023-08-30T09:41:26;99532.63;;;14.62
34901;BMP280;21112;51.976;5.660;2023-08-30T09:43:52;99526.50;;;14.66
34901;BMP280;21112;51.976;5.660;2023-08-30T09:46:21;99524.88;;;14.65
34901;BMP280;21112;51.976;5.660;2023-08-30T09:48:49;99523.00;;;14.83
34901;BMP280;21112;51.976;5.660;2023-08-30T09:51:16;99521.19;;;14.85
34901;BMP280;21112;51.976;5.660;2023-08-30T09:53:45;99518.31;;;15.05
34901;BMP280;21112;51.976;5.660;2023-08-30T09:56:15;99516.53;;;15.35
34901;BMP280;21112;51.976;5.660;2023-08-30T09:58:43;99510.94;;;15.70
34901;BMP280;21112;51.976;5.660;2023-08-30T10:01:10;99515.63;;;15.76
34901;BMP280;21112;51.976;5.660;2023-08-30T10:03:40;99505.13;;;15.82
34901;BMP280;21112;51.976;5.660;2023-08-30T10:06:07;99506.31;;;15.77
34901;BMP280;21112;51.976;5.660;2023-08-30T10:08:34;99504.91;;;15.85
34901;BMP280;21112;51.976;5.660;2023-08-30T10:11:02;99504.88;;;15.99
34901;BMP280;21112;51.976;5.660;2023-08-30T10:13:29;99505.00;;;16.10
34901;BMP280;21112;51.976;5.660;2023-08-30T10:16:00;99491.06;;;16.29
34901;BMP280;21112;51.976;5.660;2023-08-30T10:18:29;99487.75;;;16.41
34901;BMP280;21112;51.976;5.660;2023-08-30T10:20:59;99493.84;;;16.39
34901;BMP280;21112;51.976;5.660;2023-08-30T10:23:29;99497.16;;;16.27
34901;BMP280;21112;51.976;5.660;2023-08-30T10:26:00;99493.19;;;16.35
34901;BMP280;21112;51.976;5.660;2023-08-30T10:28:29;99495.97;;;16.45
34901;BMP280;21112;51.976;5.660;2023-08-30T10:30:56;99495.91;;;16.71
34901;BMP280;21112;51.976;5.660;2023-08-30T10:33:23;99493.63;;;17.65
34901;BMP280;21112;51.976;5.660;2023-08-30T10:35:51;99500.53;;;17.87
34901;BMP280;21112;51.976;5.660;2023-08-30T10:38:26;99495.19;;;17.55
34901;BMP280;21112;51.976;5.660;2023-08-30T10:40:53;99492.31;;;17.60
34901;BMP280;21112;51.976;5.660;2023-08-30T10:43:28;99492.09;;;17.39
34901;BMP280;21112;51.976;5.660;2023-08-30T10:46:00;99490.16;;;17.18
34901;BMP280;21112;51.976;5.660;2023-08-30T10:48:34;99495.31;;;17.41
34901;BMP280;21112;51.976;5.660;2023-08-30T10:51:01;99486.44;;;17.23
34901;BMP280;21112;51.976;5.660;2023-08-30T10:53:31;99492.19;;;17.25
34901;BMP280;21112;51.976;5.660;2023-08-30T10:56:09;99494.84;;;17.24
34901;BMP280;21112;51.976;5.660;2023-08-30T10:58:41;99501.50;;;17.50
34901;BMP280;21112;51.976;5.660;2023-08-30T11:01:10;99499.34;;;17.80
34901;BMP280;21112;51.976;5.660;2023-08-30T11:03:38;99493.25;;;17.82
34901;BMP280;21112;51.976;5.660;2023-08-30T11:06:08;99500.41;;;17.54
34901;BMP280;21112;51.976;5.660;2023-08-30T11:08:41;99509.28;;;17.11
34901;BMP280;21112;51.976;5.660;2023-08-30T11:11:08;99502.66;;;17.08
34901;BMP280;21112;51.976;5.660;2023-08-30T11:13:36;99504.94;;;16.88
34901;BMP280;21112;51.976;5.660;2023-08-30T11:16:03;99511.81;;;17.11
34901;BMP280;21112;51.976;5.660;2023-08-30T11:18:36;99512.50;;;17.25
34901;BMP280;21112;51.976;5.660;2023-08-30T11:21:03;99512.09;;;17.44
34901;BMP280;21112;51.976;5.660;2023-08-30T11:23:29;99513.38;;;17.62
34901;BMP280;21112;51.976;5.660;2023-08-30T11:25:58;99504.38;;;18.39
34901;BMP280;21112;51.976;5.660;2023-08-30T11:28:25;99513.91;;;19.69
34901;BMP280;21112;51.976;5.660;2023-08-30T11:30:53;99510.16;;;19.95
34901;BMP280;21112;51.976;5.660;2023-08-30T11:33:20;99503.53;;;18.95
34901;BMP280;21112;51.976;5.660;2023-08-30T11:35:51;99506.50;;;18.56
34901;BMP280;21112;51.976;5.660;2023-08-30T11:38:18;99503.84;;;18.58
34901;BMP280;21112;51.976;5.660;2023-08-30T11:40:49;99500.06;;;20.66
34901;BMP280;21112;51.976;5.660;2023-08-30T11:43:17;99495.66;;;20.68
34901;BMP280;21112;51.976;5.660;2023-08-30T11:45:44;99501.03;;;19.82
34901;BMP280;21112;51.976;5.660;2023-08-30T11:48:11;99502.78;;;19.81
34901;BMP280;21112;51.976;5.660;2023-08-30T11:50:38;99517.56;;;19.56
34901;BMP280;21112;51.976;5.660;2023-08-30T11:53:05;99497.09;;;20.61
34901;BMP280;21112;51.976;5.660;2023-08-30T11:55:33;99516.41;;;19.38
34901;BMP280;21112;51.976;5.660;2023-08-30T11:58:01;99516.97;;;18.41
34901;BMP280;21112;51.976;5.660;2023-08-30T12:00:32;99519.38;;;17.84
34901;BMP280;21112;51.976;5.660;2023-08-30T12:03:00;99526.50;;;17.56
34901;BMP280;21112;51.976;5.660;2023-08-30T12:05:26;99527.34;;;17.67
34901;BMP280;21112;51.976;5.660;2023-08-30T12:07:59;99527.38;;;17.91
34901;BMP280;21112;51.976;5.660;2023-08-30T12:10:29;99522.69;;;17.74
34901;BMP280;21112;51.976;5.660;2023-08-30T12:12:57;99524.50;;;18.19
34901;BMP280;21112;51.976;5.660;2023-08-30T12:15:23;99529.09;;;18.14
34901;BMP280;21112;51.976;5.660;2023-08-30T12:17:54;99537.25;;;18.53
34901;BMP280;21112;51.976;5.660;2023-08-30T12:20:21;99533.59;;;18.68
34901;BMP280;21112;51.976;5.660;2023-08-30T12:22:49;99527.69;;;18.79
34901;BMP280;21112;51.976;5.660;2023-08-30T12:25:18;99522.34;;;18.60
34901;BMP280;21112;51.976;5.660;2023-08-30T12:27:45;99527.63;;;18.22
34901;BMP280;21112;51.976;5.660;2023-08-30T12:30:21;99536.44;;;18.29
34901;BMP280;21112;51.976;5.660;2023-08-30T12:32:48;99534.19;;;18.37
34901;BMP280;21112;51.976;5.660;2023-08-30T12:35:17;99531.63;;;18.37
34901;BMP280;21112;51.976;5.660;2023-08-30T12:37:43;99530.25;;;18.79
34901;BMP280;21112;51.976;5.660;2023-08-30T12:40:11;99528.09;;;19.18
34901;BMP280;21112;51.976;5.660;2023-08-30T12:42:39;99536.88;;;19.03
34901;BMP280;21112;51.976;5.660;2023-08-30T12:45:06;99536.31;;;19.11
34901;BMP280;21112;51.976;5.660;2023-08-30T12:47:35;99541.59;;;19.74
34901;BMP280;21112;51.976;5.660;2023-08-30T12:50:02;99538.28;;;19.40
34901;BMP280;21112;51.976;5.660;2023-08-30T12:52:30;99534.00;;;19.52
34901;BMP280;21112;51.976;5.660;2023-08-30T12:54:57;99542.78;;;19.70
34901;BMP280;21112;51.976;5.660;2023-08-30T12:57:24;99531.94;;;20.51
34901;BMP280;21112;51.976;5.660;2023-08-30T12:59:51;99531.22;;;21.41
34901;BMP280;21112;51.976;5.660;2023-08-30T13:02:18;99532.75;;;20.72
34901;BMP280;21112;51.976;5.660;2023-08-30T13:04:45;99538.47;;;20.85
34901;BMP280;21112;51.976;5.660;2023-08-30T13:07:14;99531.84;;;20.73
34901;BMP280;21112;51.976;5.660;2023-08-30T13:09:46;99529.44;;;20.20
34901;BMP280;21112;51.976;5.660;2023-08-30T13:12:13;99524.13;;;20.43
34901;BMP280;21112;51.976;5.660;2023-08-30T13:14:40;99523.25;;;20.95
34901;BMP280;21112;51.976;5.660;2023-08-30T13:17:06;99525.47;;;20.27
34901;BMP280;21112;51.976;5.660;2023-08-30T13:19:33;99521.34;;;20.15
34901;BMP280;21112;51.976;5.660;2023-08-30T13:22:00;99520.47;;;20.57
34901;BMP280;21112;51.976;5.660;2023-08-30T13:24:28;99518.69;;;20.05
34901;BMP280;21112;51.976;5.660;2023-08-30T13:26:59;99523.03;;;20.25
34901;BMP280;21112;51.976;5.660;2023-08-30T13:29:26;99519.34;;;20.18
34901;BMP280;21112;51.976;5.660;2023-08-30T13:31:52;99526.47;;;20.35
34901;BMP280;21112;51.976;5.660;2023-08-30T13:34:21;99518.41;;;21.31
34901;BMP280;21112;51.976;5.660;2023-08-30T13:36:48;99526.91;;;21.71
34901;BMP280;21112;51.976;5.660;2023-08-30T13:39:15;99521.31;;;21.17
34901;BMP280;21112;51.976;5.660;2023-08-30T13:41:43;99523.91;;;21.66
34901;BMP280;21112;51.976;5.660;2023-08-30T13:44:14;99513.47;;;22.17
34901;BMP280;21112;51.976;5.660;2023-08-30T13:46:41;99504.59;;;22.95
34901;BMP280;21112;51.976;5.660;2023-08-30T13:49:08;99511.75;;;23.37
34901;BMP280;21112;51.976;5.660;2023-08-30T13:51:35;99508.50;;;21.08
34901;BMP280;21112;51.976;5.660;2023-08-30T13:54:02;99510.66;;;19.78
34901;BMP280;21112;51.976;5.660;2023-08-30T13:56:30;99515.13;;;19.97
34901;BMP280;21112;51.976;5.660;2023-08-30T13:58:58;99515.22;;;19.53
34901;BMP280;21112;51.976;5.660;2023-08-30T14:01:31;99514.25;;;20.18
34901;BMP280;21112;51.976;5.660;2023-08-30T14:04:00;99516.25;;;20.56
34901;BMP280;21112;51.976;5.660;2023-08-30T14:06:30;99531.00;;;21.53
34901;BMP280;21112;51.976;5.660;2023-08-30T14:08:57;99518.88;;;20.65
34901;BMP280;21112;51.976;5.660;2023-08-30T14:11:24;99534.41;;;19.79
34901;BMP280;21112;51.976;5.660;2023-08-30T14:13:51;99530.81;;;20.44